Time;durP1;ratioP1;P1;durP2;ratioP2;P2;SDS_P1;SDS_P2;PMS_P1;PMS_P2;Temp;Humidity;BMP_temperature;BMP_pressure;BME280_temperature;BME280_humidity;BME280_pressure;Samples;Min_cycle;Max_cycle;Signal;HPM_P1;HPM_P2
2022/10/19 00:02:12;;;;;;;13.63;9.60;;;;;;;;;;5033219;28;20038;-59
2022/10/19 00:04:37;;;;;;;19.27;9.77;;;;;;;;;;5033624;28;20548;-59
2022/10/19 00:07:02;;;;;;;26.40;17.90;;;;;;;;;;5033108;28;20448;-59
2022/10/19 00:09:28;;;;;;;30.47;12.10;;;;;;;;;;5033923;28;20396;-59
2022/10/19 00:11:53;;;;;;;10.10;7.13;;;;;;;;;;5032634;28;20487;-59
2022/10/19 00:14:20;;;;;;;12.53;6.03;;;;;;;;;;5034447;28;20353;-59
2022/10/19 00:16:45;;;;;;;49.03;7.55;;;;;;;;;;5032626;28;20412;-59
2022/10/19 00:19:13;;;;;;;15.32;5.20;;;;;;;;;;5033826;28;20104;-59
2022/10/19 00:21:39;;;;;;;70.93;8.57;;;;;;;;;;5032623;28;20028;-59
2022/10/19 00:24:04;;;;;;;23.75;5.75;;;;;;;;;;5034377;28;20045;-59
2022/10/19 00:26:29;;;;;;;84.85;10.13;;;;;;;;;;5031704;28;20436;-59
2022/10/19 00:28:55;;;;;;;31.50;8.67;;;;;;;;;;5034508;28;20041;-59
2022/10/19 00:31:20;;;;;;;48.20;8.85;;;;;;;;;;5032552;28;20498;-59
2022/10/19 00:33:45;;;;;;;43.45;10.35;;;;;;;;;;5033248;28;20104;-59
2022/10/19 00:36:24;;;;;;;42.45;7.32;;;;;;;;;;5033725;28;20045;-59
2022/10/19 00:38:50;;;;;;;11.40;5.15;;;;;;;;;;5032454;28;20520;-59
2022/10/19 00:41:16;;;;;;;11.68;5.75;;;;;;;;;;5033589;28;20017;-59
2022/10/19 00:43:57;;;;;;;13.38;5.28;;;;;;;;;;5032110;28;20044;-59
2022/10/19 00:46:23;;;;;;;14.57;6.40;;;;;;;;;;5031499;28;20024;-58
2022/10/19 00:48:49;;;;;;;10.18;6.15;;;;;;;;;;5033787;28;20014;-59
2022/10/19 00:51:14;;;;;;;12.60;9.40;;;;;;;;;;5033100;28;20023;-59
2022/10/19 00:53:40;;;;;;;23.00;11.35;;;;;;;;;;5031895;28;20041;-59
2022/10/19 00:56:08;;;;;;;15.75;10.23;;;;;;;;;;5033561;28;20037;-59
2022/10/19 00:58:33;;;;;;;19.95;11.10;;;;;;;;;;5031751;28;20061;-60
2022/10/19 01:01:00;;;;;;;17.80;9.73;;;;;;;;;;5033439;28;20056;-60
2022/10/19 01:03:25;;;;;;;10.73;9.63;;;;;;;;;;5031356;28;20892;-60
2022/10/19 01:05:50;;;;;;;13.77;9.25;;;;;;;;;;5033560;28;20056;-59
2022/10/19 01:08:15;;;;;;;12.17;9.27;;;;;;;;;;5032033;28;20029;-60
2022/10/19 01:10:43;;;;;;;13.80;8.70;;;;;;;;;;5032378;28;20113;-60
2022/10/19 01:13:20;;;;;;;12.57;11.30;;;;;;;;;;5031343;28;20034;-60
2022/10/19 01:15:56;;;;;;;15.75;9.90;;;;;;;;;;5033465;28;20041;-60
2022/10/19 01:18:28;;;;;;;16.88;11.35;;;;;;;;;;5031329;28;20041;-60
2022/10/19 01:20:56;;;;;;;13.48;10.60;;;;;;;;;;5033202;28;20025;-61
2022/10/19 01:23:34;;;;;;;9.93;9.02;;;;;;;;;;5031511;28;20065;-60
2022/10/19 01:26:07;;;;;;;13.07;9.75;;;;;;;;;;5032808;28;20013;-60
2022/10/19 01:28:43;;;;;;;9.63;8.82;;;;;;;;;;5030878;28;20061;-60
2022/10/19 01:31:26;;;;;;;10.52;9.57;;;;;;;;;;5033088;28;20079;-60
2022/10/19 01:34:06;;;;;;;9.25;8.25;;;;;;;;;;5031532;28;20457;-60
2022/10/19 01:36:31;;;;;;;15.00;10.40;;;;;;;;;;5032610;28;20256;-60
2022/10/19 01:39:06;;;;;;;13.93;11.32;;;;;;;;;;5030869;28;20030;-60
2022/10/19 01:41:33;;;;;;;19.63;10.52;;;;;;;;;;5031927;28;20017;-60
2022/10/19 01:44:02;;;;;;;22.73;9.60;;;;;;;;;;5031242;28;20107;-60
2022/10/19 01:46:36;;;;;;;20.75;10.65;;;;;;;;;;5032474;28;20385;-60
2022/10/19 01:49:07;;;;;;;16.30;10.95;;;;;;;;;;5031206;28;20124;-60
2022/10/19 01:51:36;;;;;;;12.10;10.60;;;;;;;;;;5031965;28;20036;-60
2022/10/19 01:54:04;;;;;;;13.48;9.68;;;;;;;;;;5030338;28;20045;-60
2022/10/19 01:56:31;;;;;;;19.05;10.60;;;;;;;;;;5032419;28;20021;-60
2022/10/19 01:58:57;;;;;;;18.45;10.23;;;;;;;;;;5030863;28;20039;-60
2022/10/19 02:01:24;;;;;;;11.60;10.38;;;;;;;;;;5031749;28;20147;-60
2022/10/19 02:03:50;;;;;;;19.55;11.07;;;;;;;;;;5030061;28;20037;-60
2022/10/19 02:06:15;;;;;;;20.25;10.23;;;;;;;;;;5032044;28;20424;-60
2022/10/19 02:08:42;;;;;;;19.20;10.70;;;;;;;;;;5030031;28;20061;-60
2022/10/19 02:11:08;;;;;;;25.15;11.68;;;;;;;;;;5031606;28;20029;-60
2022/10/19 02:13:33;;;;;;;14.32;10.13;;;;;;;;;;5030511;28;20116;-60
2022/10/19 02:16:00;;;;;;;17.67;12.27;;;;;;;;;;5031828;28;20045;-60
2022/10/19 02:18:30;;;;;;;14.45;12.25;;;;;;;;;;5030371;28;20405;-59
2022/10/19 02:20:56;;;;;;;26.52;13.32;;;;;;;;;;5032100;28;20481;-59
2022/10/19 02:23:24;;;;;;;15.93;11.40;;;;;;;;;;5029691;28;20072;-59
2022/10/19 02:25:49;;;;;;;15.67;12.43;;;;;;;;;;5031501;28;20031;-60
2022/10/19 02:28:14;;;;;;;19.90;10.13;;;;;;;;;;5030654;28;20033;-59
2022/10/19 02:30:41;;;;;;;10.60;9.50;;;;;;;;;;5031321;28;20411;-59
2022/10/19 02:33:06;;;;;;;13.32;9.98;;;;;;;;;;5030291;28;20034;-58
2022/10/19 02:35:31;;;;;;;14.73;10.52;;;;;;;;;;5031008;28;20049;-59
2022/10/19 02:37:58;;;;;;;24.17;11.95;;;;;;;;;;5029303;28;20521;-59
2022/10/19 02:40:23;;;;;;;12.93;9.65;;;;;;;;;;5031625;28;20017;-59
2022/10/19 02:42:53;;;;;;;11.48;10.02;;;;;;;;;;5029995;28;20183;-59
2022/10/19 02:45:24;;;;;;;15.98;10.68;;;;;;;;;;5031264;28;20611;-61
2022/10/19 02:47:54;;;;;;;15.27;11.02;;;;;;;;;;5030097;28;20039;-61
2022/10/19 02:50:20;;;;;;;17.00;10.55;;;;;;;;;;5031625;28;20021;-61
2022/10/19 02:52:45;;;;;;;11.20;9.98;;;;;;;;;;5029037;28;20038;-61
2022/10/19 02:55:10;;;;;;;18.75;11.63;;;;;;;;;;5031415;28;20491;-61
2022/10/19 02:57:36;;;;;;;21.35;12.55;;;;;;;;;;5029833;28;20407;-61
2022/10/19 03:00:03;;;;;;;16.80;10.82;;;;;;;;;;5030940;28;20021;-61
2022/10/19 03:02:28;;;;;;;15.27;11.05;;;;;;;;;;5029570;28;20045;-60
2022/10/19 03:04:53;;;;;;;21.52;11.57;;;;;;;;;;5030998;28;20022;-61
2022/10/19 03:07:19;;;;;;;11.65;10.55;;;;;;;;;;5029733;28;20038;-60
2022/10/19 03:09:44;;;;;;;13.77;9.50;;;;;;;;;;5031049;28;20017;-60
2022/10/19 03:12:11;;;;;;;11.25;9.13;;;;;;;;;;5029809;28;20060;-60
2022/10/19 03:14:36;;;;;;;15.63;9.40;;;;;;;;;;5030871;28;20025;-60
2022/10/19 03:17:01;;;;;;;11.83;10.73;;;;;;;;;;5029263;28;20370;-60
2022/10/19 03:19:27;;;;;;;10.43;8.82;;;;;;;;;;5030688;28;20464;-60
2022/10/19 03:21:52;;;;;;;14.60;10.50;;;;;;;;;;5029799;28;20053;-60
2022/10/19 03:24:17;;;;;;;12.40;11.10;;;;;;;;;;5030576;28;20017;-60
2022/10/19 03:26:42;;;;;;;16.85;11.23;;;;;;;;;;5029152;28;20400;-60
2022/10/19 03:29:07;;;;;;;11.13;9.27;;;;;;;;;;5031145;28;20025;-60
2022/10/19 03:31:33;;;;;;;24.08;9.50;;;;;;;;;;5028666;28;20052;-60
2022/10/19 03:33:58;;;;;;;9.38;8.35;;;;;;;;;;5031265;28;20455;-60
2022/10/19 03:36:23;;;;;;;9.97;9.03;;;;;;;;;;5030545;28;20049;-60
2022/10/19 03:38:49;;;;;;;12.52;11.20;;;;;;;;;;5029102;28;20049;-60
2022/10/19 03:41:14;;;;;;;14.48;11.73;;;;;;;;;;5030970;28;20354;-60
2022/10/19 03:43:40;;;;;;;10.48;9.48;;;;;;;;;;5029380;28;20049;-60
2022/10/19 03:46:05;;;;;;;12.13;9.88;;;;;;;;;;5030647;28;20137;-60
2022/10/19 03:48:30;;;;;;;15.73;11.13;;;;;;;;;;5028961;28;20033;-60
2022/10/19 03:51:03;;;;;;;14.30;10.23;;;;;;;;;;5030881;28;20420;-60
2022/10/19 03:53:30;;;;;;;11.98;10.88;;;;;;;;;;5028409;28;20404;-60
2022/10/19 03:56:02;;;;;;;11.35;10.15;;;;;;;;;;5030564;28;20068;-60
2022/10/19 03:58:27;;;;;;;10.73;9.70;;;;;;;;;;5028892;28;20037;-60
2022/10/19 04:00:53;;;;;;;16.70;9.48;;;;;;;;;;5029950;28;20017;-60
2022/10/19 04:03:18;;;;;;;23.65;10.90;;;;;;;;;;5029280;28;20520;-60
2022/10/19 04:05:43;;;;;;;52.63;15.57;;;;;;;;;;5030441;28;20025;-60
2022/10/19 04:08:08;;;;;;;12.43;11.13;;;;;;;;;;5029027;28;20061;-60
2022/10/19 04:10:33;;;;;;;14.00;10.50;;;;;;;;;;5030424;28;20420;-60
2022/10/19 04:12:58;;;;;;;11.32;9.90;;;;;;;;;;5028737;28;20117;-60
2022/10/19 04:15:23;;;;;;;12.38;10.68;;;;;;;;;;5030107;28;20026;-61
2022/10/19 04:17:49;;;;;;;15.07;11.52;;;;;;;;;;5029148;28;20416;-61
2022/10/19 04:20:14;;;;;;;14.77;11.38;;;;;;;;;;5029949;28;20030;-60
2022/10/19 04:22:39;;;;;;;10.45;8.63;;;;;;;;;;5028450;28;20033;-63
2022/10/19 04:25:04;;;;;;;11.23;9.65;;;;;;;;;;5030278;28;20185;-62
2022/10/19 04:27:29;;;;;;;9.65;8.75;;;;;;;;;;5031343;28;20136;-62
2022/10/19 04:29:55;;;;;;;10.32;9.43;;;;;;;;;;5033722;28;20021;-62
2022/10/19 04:32:20;;;;;;;10.45;9.45;;;;;;;;;;5032647;28;20485;-64
2022/10/19 04:34:45;;;;;;;11.20;10.20;;;;;;;;;;5033705;28;20103;-62
2022/10/19 04:37:10;;;;;;;10.07;9.15;;;;;;;;;;5032419;28;20064;-62
2022/10/19 04:39:38;;;;;;;13.20;10.05;;;;;;;;;;5033343;28;20472;-62
2022/10/19 04:42:03;;;;;;;49.37;10.90;;;;;;;;;;5032281;28;20034;-62
2022/10/19 04:44:28;;;;;;;11.02;9.57;;;;;;;;;;5033363;28;20377;-62
2022/10/19 04:46:53;;;;;;;8.68;7.97;;;;;;;;;;5031155;28;20033;-62
2022/10/19 04:49:19;;;;;;;9.27;8.00;;;;;;;;;;5033983;28;20052;-62
2022/10/19 04:51:44;;;;;;;8.95;8.15;;;;;;;;;;5031835;28;20035;-62
2022/10/19 04:54:09;;;;;;;11.23;10.32;;;;;;;;;;5033225;28;20383;-62
2022/10/19 04:56:34;;;;;;;11.57;10.10;;;;;;;;;;5031946;28;20037;-62
2022/10/19 04:59:00;;;;;;;46.00;12.90;;;;;;;;;;5033338;28;20026;-63
2022/10/19 05:01:25;;;;;;;12.48;8.73;;;;;;;;;;5031913;28;20642;-62
2022/10/19 05:03:55;;;;;;;11.65;10.65;;;;;;;;;;5033397;28;20032;-62
2022/10/19 05:06:20;;;;;;;15.05;11.50;;;;;;;;;;5033225;28;20056;-62
2022/10/19 05:08:46;;;;;;;8.43;7.00;;;;;;;;;;5031492;28;20069;-61
2022/10/19 05:11:13;;;;;;;55.30;11.07;;;;;;;;;;5033403;28;20044;-61
2022/10/19 05:13:38;;;;;;;29.52;8.50;;;;;;;;;;5030906;28;20091;-61
2022/10/19 05:16:04;;;;;;;9.05;8.15;;;;;;;;;;5033495;28;20025;-61
2022/10/19 05:18:30;;;;;;;8.52;7.72;;;;;;;;;;5031377;28;20037;-62
2022/10/19 05:21:11;;;;;;;9.50;8.70;;;;;;;;;;5033230;28;20028;-62
2022/10/19 05:23:36;;;;;;;10.88;9.88;;;;;;;;;;5030704;28;20048;-62
2022/10/19 05:26:03;;;;;;;11.30;8.73;;;;;;;;;;5032444;28;20108;-62
2022/10/19 05:28:28;;;;;;;10.25;9.00;;;;;;;;;;5030165;28;20058;-62
2022/10/19 05:30:54;;;;;;;8.05;7.35;;;;;;;;;;5031931;28;20181;-62
2022/10/19 05:33:19;;;;;;;10.35;9.35;;;;;;;;;;5031268;28;20148;-62
2022/10/19 05:35:44;;;;;;;63.78;11.00;;;;;;;;;;5031954;28;20069;-62
2022/10/19 05:38:09;;;;;;;14.50;8.75;;;;;;;;;;5030235;28;20497;-61
2022/10/19 05:40:34;;;;;;;10.82;9.90;;;;;;;;;;5032397;28;20029;-62
2022/10/19 05:42:59;;;;;;;15.38;11.63;;;;;;;;;;5030851;28;20068;-61
2022/10/19 05:45:24;;;;;;;13.65;11.43;;;;;;;;;;5032404;28;20511;-62
2022/10/19 05:47:50;;;;;;;11.05;10.05;;;;;;;;;;5031369;28;20029;-62
2022/10/19 05:50:15;;;;;;;9.23;8.50;;;;;;;;;;5031910;28;20053;-62
2022/10/19 05:52:40;;;;;;;14.30;11.00;;;;;;;;;;5030698;28;20461;-61
2022/10/19 05:55:05;;;;;;;10.65;9.55;;;;;;;;;;5032552;28;20412;-62
2022/10/19 05:57:31;;;;;;;22.17;8.45;;;;;;;;;;5030825;28;20037;-61
2022/10/19 05:59:57;;;;;;;10.63;9.65;;;;;;;;;;5032305;28;20033;-59
2022/10/19 06:02:22;;;;;;;10.02;9.23;;;;;;;;;;5030084;28;20060;-59
2022/10/19 06:04:47;;;;;;;10.50;9.60;;;;;;;;;;5032626;28;20021;-59
2022/10/19 06:07:12;;;;;;;10.63;9.73;;;;;;;;;;5029591;28;20405;-59
2022/10/19 06:09:38;;;;;;;11.13;10.03;;;;;;;;;;5031644;28;20105;-59
2022/10/19 06:12:03;;;;;;;11.88;10.77;;;;;;;;;;5031027;28;20777;-59
2022/10/19 06:14:28;;;;;;;11.15;10.25;;;;;;;;;;5031733;28;20045;-59
2022/10/19 06:16:53;;;;;;;15.60;9.70;;;;;;;;;;5030454;28;20048;-59
2022/10/19 06:19:18;;;;;;;12.13;10.23;;;;;;;;;;5032172;28;20423;-60
2022/10/19 06:21:44;;;;;;;11.20;10.00;;;;;;;;;;5027557;28;20939;-59
2022/10/19 06:24:09;;;;;;;13.43;11.98;;;;;;;;;;5029608;28;20033;-59
2022/10/19 06:26:34;;;;;;;9.93;9.13;;;;;;;;;;5018944;28;20021;-59
2022/10/19 06:29:00;;;;;;;11.25;10.13;;;;;;;;;;5030888;28;20032;-59
2022/10/19 06:31:29;;;;;;;12.90;11.73;;;;;;;;;;5027946;28;20022;-59
2022/10/19 06:33:55;;;;;;;13.73;12.45;;;;;;;;;;5030477;28;20025;-60
2022/10/19 06:36:21;;;;;;;12.13;10.93;;;;;;;;;;5030575;28;20117;-59
2022/10/19 06:38:46;;;;;;;21.13;11.50;;;;;;;;;;5028868;28;21047;-59
2022/10/19 06:41:12;;;;;;;11.18;10.18;;;;;;;;;;5031182;28;20030;-60
2022/10/19 06:43:37;;;;;;;11.48;10.48;;;;;;;;;;5028277;28;20567;-60
2022/10/19 06:46:06;;;;;;;11.32;10.27;;;;;;;;;;5030280;28;20500;-59
2022/10/19 06:48:32;;;;;;;12.50;11.30;;;;;;;;;;5029249;28;20488;-59
2022/10/19 06:50:58;;;;;;;12.45;11.27;;;;;;;;;;5030568;28;20013;-59
2022/10/19 06:53:23;;;;;;;14.70;10.90;;;;;;;;;;5027970;28;20501;-59
2022/10/19 06:55:48;;;;;;;15.18;13.68;;;;;;;;;;5031219;28;20040;-59
2022/10/19 06:58:14;;;;;;;13.67;12.30;;;;;;;;;;5028913;28;20048;-59
2022/10/19 07:00:39;;;;;;;15.35;13.80;;;;;;;;;;5029754;28;20064;-59
2022/10/19 07:03:04;;;;;;;16.70;13.15;;;;;;;;;;5029611;28;20048;-59
2022/10/19 07:05:29;;;;;;;17.77;15.87;;;;;;;;;;5030116;28;20095;-59
2022/10/19 07:07:55;;;;;;;20.20;14.70;;;;;;;;;;5028705;28;20831;-59
2022/10/19 07:10:20;;;;;;;19.13;15.85;;;;;;;;;;5030499;28;20075;-59
2022/10/19 07:12:46;;;;;;;18.13;15.57;;;;;;;;;;5028395;28;20037;-59
2022/10/19 07:15:11;;;;;;;18.83;16.83;;;;;;;;;;5029195;28;20025;-59
2022/10/19 07:17:36;;;;;;;17.27;15.47;;;;;;;;;;5029247;28;20409;-59
2022/10/19 07:20:01;;;;;;;20.23;14.95;;;;;;;;;;5030308;28;20022;-59
2022/10/19 07:22:26;;;;;;;17.90;15.95;;;;;;;;;;5028249;28;20033;-59
2022/10/19 07:24:51;;;;;;;15.20;13.60;;;;;;;;;;5029997;28;20019;-59
2022/10/19 07:27:17;;;;;;;14.80;13.23;;;;;;;;;;5028796;28;20179;-59
2022/10/19 07:29:42;;;;;;;15.02;13.50;;;;;;;;;;5030201;28;20013;-59
2022/10/19 07:32:07;;;;;;;16.58;14.00;;;;;;;;;;5026252;28;20041;-59
2022/10/19 07:34:32;;;;;;;14.30;12.80;;;;;;;;;;5027107;28;20029;-59
2022/10/19 07:36:57;;;;;;;15.25;12.77;;;;;;;;;;5028814;28;20041;-59
2022/10/19 07:39:23;;;;;;;16.48;12.27;;;;;;;;;;5030179;28;20619;-59
2022/10/19 07:41:48;;;;;;;19.67;13.77;;;;;;;;;;5025927;28;20076;-59
2022/10/19 07:44:14;;;;;;;15.00;12.53;;;;;;;;;;5027490;28;20096;-58
2022/10/19 07:46:39;;;;;;;16.85;13.93;;;;;;;;;;5028895;28;20421;-58
2022/10/19 07:49:08;;;;;;;24.23;15.00;;;;;;;;;;5029295;28;20017;-59
2022/10/19 07:51:34;;;;;;;17.05;15.02;;;;;;;;;;5028774;28;20432;-58
2022/10/19 07:53:59;;;;;;;17.40;13.32;;;;;;;;;;5028285;28;20022;-58
2022/10/19 07:56:25;;;;;;;19.13;13.03;;;;;;;;;;5028345;28;20104;-59
2022/10/19 07:58:51;;;;;;;30.00;16.00;;;;;;;;;;5030011;28;20156;-58
2022/10/19 08:01:36;;;;;;;16.15;13.50;;;;;;;;;;5031212;28;20026;-59
2022/10/19 08:04:02;;;;;;;15.38;12.38;;;;;;;;;;5032412;28;20098;-58
2022/10/19 08:06:27;;;;;;;18.35;14.07;;;;;;;;;;5032906;28;20465;-58
2022/10/19 08:08:52;;;;;;;12.90;11.57;;;;;;;;;;5034230;28;20526;-59
2022/10/19 08:11:28;;;;;;;20.85;13.02;;;;;;;;;;5033798;28;20056;-58
2022/10/19 08:13:54;;;;;;;11.52;9.73;;;;;;;;;;5032736;28;20294;-59
2022/10/19 08:16:24;;;;;;;12.80;11.07;;;;;;;;;;5033841;28;20053;-59
2022/10/19 08:18:50;;;;;;;16.67;10.48;;;;;;;;;;5032191;28;20045;-59
2022/10/19 08:21:15;;;;;;;16.75;12.02;;;;;;;;;;5033938;28;20535;-59
2022/10/19 08:23:40;;;;;;;14.77;11.63;;;;;;;;;;5032063;28;20160;-58
2022/10/19 08:26:05;;;;;;;10.40;9.32;;;;;;;;;;5033682;28;20502;-59
2022/10/19 08:28:30;;;;;;;12.60;8.85;;;;;;;;;;5032161;28;20025;-59
2022/10/19 08:30:57;;;;;;;15.70;9.50;;;;;;;;;;5033648;28;20017;-59
2022/10/19 08:33:23;;;;;;;15.85;8.60;;;;;;;;;;5031537;28;20555;-59
2022/10/19 08:35:48;;;;;;;14.23;7.72;;;;;;;;;;5033520;28;20049;-59
2022/10/19 08:38:13;;;;;;;14.70;8.18;;;;;;;;;;5032102;28;20040;-59
2022/10/19 08:40:38;;;;;;;12.43;7.43;;;;;;;;;;5033081;28;20033;-59
2022/10/19 08:43:10;;;;;;;12.97;5.93;;;;;;;;;;5031968;28;20053;-59
2022/10/19 08:45:49;;;;;;;21.92;7.22;;;;;;;;;;5033636;28;20017;-59
2022/10/19 08:48:20;;;;;;;9.52;5.47;;;;;;;;;;5031526;28;20041;-59
2022/10/19 08:50:46;;;;;;;13.07;5.28;;;;;;;;;;5033336;28;20021;-59
2022/10/19 08:53:14;;;;;;;7.50;5.13;;;;;;;;;;5031780;28;20041;-59
2022/10/19 08:55:55;;;;;;;8.27;4.70;;;;;;;;;;5032962;28;20021;-59
2022/10/19 08:58:20;;;;;;;10.50;6.10;;;;;;;;;;5031167;28;20119;-58
2022/10/19 09:00:49;;;;;;;6.30;4.07;;;;;;;;;;5030724;28;20483;-59
2022/10/19 09:03:18;;;;;;;9.48;4.43;;;;;;;;;;5029737;28;20195;-59
2022/10/19 09:05:56;;;;;;;5.40;3.53;;;;;;;;;;5032685;28;20049;-59
2022/10/19 09:08:21;;;;;;;7.60;4.07;;;;;;;;;;5031426;28;20164;-59
2022/10/19 09:10:49;;;;;;;5.53;3.30;;;;;;;;;;5032568;28;20480;-60
2022/10/19 09:13:30;;;;;;;6.70;2.88;;;;;;;;;;5027702;28;20470;-59
2022/10/19 09:15:55;;;;;;;10.88;3.88;;;;;;;;;;5033265;28;20029;-60
2022/10/19 09:18:21;;;;;;;9.77;3.00;;;;;;;;;;5030704;28;20092;-59
2022/10/19 09:20:47;;;;;;;6.55;3.90;;;;;;;;;;5032202;28;20060;-59
2022/10/19 09:23:15;;;;;;;9.75;4.20;;;;;;;;;;5030869;28;20048;-59
2022/10/19 09:25:41;;;;;;;6.15;2.63;;;;;;;;;;5032213;28;20614;-60
2022/10/19 09:28:19;;;;;;;4.43;2.35;;;;;;;;;;5030761;28;20433;-60
2022/10/19 09:30:44;;;;;;;;;;;;;;;;;;5032745;28;20017;-60
2022/10/19 09:33:22;;;;;;;2.45;1.83;;;;;;;;;;5030115;28;19909;-60
2022/10/19 09:35:47;;;;;;;8.45;3.00;;;;;;;;;;5032057;28;20465;-59
2022/10/19 09:38:13;;;;;;;3.95;2.20;;;;;;;;;;5030841;28;20121;-61
2022/10/19 09:40:39;;;;;;;3.40;2.38;;;;;;;;;;5030895;28;20417;-60
2022/10/19 09:43:18;;;;;;;17.42;5.32;;;;;;;;;;5030441;28;20038;-59
2022/10/19 09:46:03;;;;;;;9.98;2.97;;;;;;;;;;5032320;28;20381;-59
2022/10/19 09:48:30;;;;;;;11.98;3.25;;;;;;;;;;5029617;28;20439;-59
2022/10/19 09:50:59;;;;;;;15.77;4.03;;;;;;;;;;5031624;28;20516;-59
2022/10/19 09:53:25;;;;;;;7.28;3.67;;;;;;;;;;5030644;28;20046;-59
2022/10/19 09:55:57;;;;;;;7.93;2.22;;;;;;;;;;5032088;28;20030;-59
2022/10/19 09:58:24;;;;;;;11.00;3.00;;;;;;;;;;5029995;28;20033;-59
2022/10/19 10:00:50;;;;;;;9.35;2.05;;;;;;;;;;5031618;28;20044;-60
2022/10/19 10:03:22;;;;;;;5.68;2.42;;;;;;;;;;5030266;28;20050;-57
2022/10/19 10:05:47;;;;;;;7.15;3.22;;;;;;;;;;5031897;28;20022;-56
2022/10/19 10:08:20;;;;;;;5.75;2.42;;;;;;;;;;5030310;28;20033;-59
2022/10/19 10:10:46;;;;;;;11.05;3.40;;;;;;;;;;5031050;28;20473;-59
2022/10/19 10:13:18;;;;;;;7.18;2.85;;;;;;;;;;5030438;28;20124;-59
2022/10/19 10:15:46;;;;;;;7.72;2.75;;;;;;;;;;5031518;28;20071;-59
2022/10/19 10:18:13;;;;;;;9.13;2.58;;;;;;;;;;5029012;28;20500;-59
2022/10/19 10:20:54;;;;;;;8.68;3.35;;;;;;;;;;5031079;28;20022;-57
2022/10/19 10:23:22;;;;;;;9.55;2.97;;;;;;;;;;5029956;28;20034;-56
2022/10/19 10:25:47;;;;;;;7.22;2.05;;;;;;;;;;5030161;28;20023;-56
2022/10/19 10:28:15;;;;;;;11.77;3.28;;;;;;;;;;5029719;28;20498;-59
2022/10/19 10:30:43;;;;;;;11.68;4.20;;;;;;;;;;5031232;28;20060;-59
2022/10/19 10:33:13;;;;;;;11.88;3.22;;;;;;;;;;5029516;28;20041;-59
2022/10/19 10:35:38;;;;;;;7.50;3.10;;;;;;;;;;5031038;28;20052;-58
2022/10/19 10:38:06;;;;;;;5.57;2.77;;;;;;;;;;5028555;28;20041;-59
2022/10/19 10:40:31;;;;;;;13.35;4.40;;;;;;;;;;5030450;28;20807;-58
2022/10/19 10:43:00;;;;;;;9.93;2.20;;;;;;;;;;5029260;28;20041;-59
2022/10/19 10:45:25;;;;;;;5.13;1.85;;;;;;;;;;5030623;28;20029;-59
2022/10/19 10:47:51;;;;;;;8.30;3.20;;;;;;;;;;5026864;28;20164;-59
2022/10/19 10:50:16;;;;;;;9.48;2.10;;;;;;;;;;5030789;28;20018;-59
2022/10/19 10:52:54;;;;;;;17.63;3.60;;;;;;;;;;5027928;28;20045;-59
2022/10/19 10:55:20;;;;;;;5.93;2.72;;;;;;;;;;5030628;28;20978;-58
2022/10/19 10:57:47;;;;;;;5.82;2.38;;;;;;;;;;5027424;28;20033;-58
2022/10/19 11:00:14;;;;;;;6.22;2.78;;;;;;;;;;5030484;28;20021;-58
2022/10/19 11:02:45;;;;;;;6.65;2.75;;;;;;;;;;5028736;28;20149;-58
2022/10/19 11:05:13;;;;;;;7.22;2.88;;;;;;;;;;5030818;28;20427;-59
2022/10/19 11:07:38;;;;;;;;;;;;;;;;;;5029848;28;20040;-58
2022/10/19 11:10:10;;;;;;;4.57;2.05;;;;;;;;;;5030554;28;19995;-58
2022/10/19 11:12:42;;;;;;;2.78;1.48;;;;;;;;;;5029105;28;20057;-58
2022/10/19 11:15:26;;;;;;;4.38;2.22;;;;;;;;;;5030694;28;20068;-58
2022/10/19 11:17:55;;;;;;;4.15;1.85;;;;;;;;;;5029336;28;20044;-58
2022/10/19 11:20:20;;;;;;;;;;;;;;;;;;5030994;28;20112;-58
2022/10/19 11:22:49;;;;;;;6.25;2.25;;;;;;;;;;5029355;28;20039;-58
2022/10/19 11:25:17;;;;;;;4.32;2.45;;;;;;;;;;5030593;28;20381;-58
2022/10/19 11:27:49;;;;;;;6.25;2.50;;;;;;;;;;5029153;28;20060;-58
2022/10/19 11:30:17;;;;;;;12.25;2.08;;;;;;;;;;5030725;28;20441;-58
2022/10/19 11:33:03;;;;;;;7.70;4.18;;;;;;;;;;5028299;28;20076;-58
2022/10/19 11:35:31;;;;;;;8.20;2.72;;;;;;;;;;5031561;28;20556;-58
2022/10/19 11:38:15;;;;;;;4.57;2.05;;;;;;;;;;5033684;28;20493;-58
2022/10/19 11:40:49;;;;;;;3.70;2.03;;;;;;;;;;5035038;28;20389;-58
2022/10/19 11:43:21;;;;;;;3.22;2.42;;;;;;;;;;5032626;28;20057;-58
2022/10/19 11:45:57;;;;;;;5.18;2.60;;;;;;;;;;5034587;28;20009;-58
2022/10/19 11:48:41;;;;;;;6.60;3.28;;;;;;;;;;5033273;28;20030;-58
2022/10/19 11:51:11;;;;;;;6.78;3.42;;;;;;;;;;5034740;28;20014;-58
2022/10/19 11:53:55;;;;;;;4.47;2.05;;;;;;;;;;5031988;28;20095;-58
2022/10/19 11:56:27;;;;;;;7.28;3.28;;;;;;;;;;5034916;28;20053;-58
2022/10/19 11:59:01;;;;;;;10.95;4.07;;;;;;;;;;5033660;28;20041;-58
2022/10/19 12:01:45;;;;;;;8.20;3.83;;;;;;;;;;5031578;28;20083;-58
2022/10/19 12:04:10;;;;;;;6.30;3.10;;;;;;;;;;5034099;28;20033;-58
2022/10/19 12:06:58;;;;;;;3.80;2.58;;;;;;;;;;5032050;28;20084;-58
2022/10/19 12:09:24;;;;;;;;;;;;;;;;;;5034267;28;20113;-58
2022/10/19 12:12:08;;;;;;;7.60;2.85;;;;;;;;;;5032460;28;19940;-58
2022/10/19 12:14:35;;;;;;;10.57;3.85;;;;;;;;;;5034296;28;20108;-58
2022/10/19 12:17:08;;;;;;;4.97;2.78;;;;;;;;;;5032366;28;20176;-58
2022/10/19 12:19:37;;;;;;;5.13;2.55;;;;;;;;;;5034045;28;20377;-58
2022/10/19 12:22:04;;;;;;;11.65;3.33;;;;;;;;;;5032966;28;20033;-58
2022/10/19 12:24:31;;;;;;;4.78;2.65;;;;;;;;;;5033630;28;20021;-59
2022/10/19 12:26:56;;;;;;;10.88;3.40;;;;;;;;;;5031874;28;20041;-58
2022/10/19 12:29:26;;;;;;;8.35;2.10;;;;;;;;;;5033959;28;20017;-58
2022/10/19 12:31:52;;;;;;;7.82;3.08;;;;;;;;;;5031910;28;20513;-58
2022/10/19 12:34:25;;;;;;;15.15;3.75;;;;;;;;;;5034156;28;20036;-58
2022/10/19 12:36:50;;;;;;;7.22;2.17;;;;;;;;;;5031993;28;20083;-58
2022/10/19 12:39:18;;;;;;;7.50;2.20;;;;;;;;;;5033038;28;20021;-58
2022/10/19 12:41:43;;;;;;;5.13;2.28;;;;;;;;;;5032036;28;20041;-58
2022/10/19 12:44:22;;;;;;;11.07;3.10;;;;;;;;;;5032989;28;20021;-58
2022/10/19 12:46:52;;;;;;;4.18;1.85;;;;;;;;;;5031267;28;20117;-59
2022/10/19 12:49:29;;;;;;;4.57;2.22;;;;;;;;;;5033911;28;20029;-59
2022/10/19 12:51:55;;;;;;;9.32;2.45;;;;;;;;;;5032114;28;20034;-59
2022/10/19 12:54:22;;;;;;;4.65;2.10;;;;;;;;;;5033546;28;20025;-58
2022/10/19 12:56:48;;;;;;;3.53;2.28;;;;;;;;;;5032116;28;20036;-58
2022/10/19 12:59:22;;;;;;;5.90;1.85;;;;;;;;;;5033862;28;20025;-58
2022/10/19 13:01:47;;;;;;;6.95;1.80;;;;;;;;;;5031230;28;20176;-58
2022/10/19 13:04:12;;;;;;;4.97;1.40;;;;;;;;;;5018236;28;20065;-59
2022/10/19 13:06:49;;;;;;;2.47;2.15;;;;;;;;;;5025000;28;20677;-58
2022/10/19 13:09:37;;;;;;;8.30;4.25;;;;;;;;;;5033432;28;20017;-59
2022/10/19 13:12:14;;;;;;;7.28;5.35;;;;;;;;;;5020990;28;20033;-58
2022/10/19 13:14:42;;;;;;;6.53;2.60;;;;;;;;;;5032165;28;20797;-58
2022/10/19 13:17:07;;;;;;;5.57;2.37;;;;;;;;;;5031873;28;20041;-58
2022/10/19 13:19:33;;;;;;;6.82;3.40;;;;;;;;;;5033240;28;20435;-58
2022/10/19 13:21:58;;;;;;;6.18;2.58;;;;;;;;;;5031539;28;20029;-59
2022/10/19 13:24:23;;;;;;;18.33;3.88;;;;;;;;;;5032532;28;20108;-58
2022/10/19 13:27:00;;;;;;;7.15;2.72;;;;;;;;;;5031728;28;20145;-59
2022/10/19 13:29:27;;;;;;;4.25;3.72;;;;;;;;;;5032410;28;20064;-59
2022/10/19 13:31:52;;;;;;;4.45;2.95;;;;;;;;;;5031279;28;20079;-59
2022/10/19 13:34:17;;;;;;;5.93;3.53;;;;;;;;;;5032789;28;20041;-59
2022/10/19 13:37:09;;;;;;;6.20;3.20;;;;;;;;;;5030853;28;20132;-59
2022/10/19 13:39:36;;;;;;;6.93;3.05;;;;;;;;;;5030477;28;20448;-59
2022/10/19 13:42:01;;;;;;;7.57;3.40;;;;;;;;;;5030254;28;20469;-59
2022/10/19 13:44:29;;;;;;;7.73;3.77;;;;;;;;;;5031525;28;20116;-59
2022/10/19 13:47:05;;;;;;;3.55;2.10;;;;;;;;;;5031180;28;20816;-58
2022/10/19 13:49:49;;;;;;;5.70;2.40;;;;;;;;;;5032625;28;20444;-58
2022/10/19 13:52:40;;;;;;;4.82;2.65;;;;;;;;;;5030439;28;20041;-58
2022/10/19 13:55:27;;;;;;;7.93;3.35;;;;;;;;;;5031748;28;20045;-58
2022/10/19 13:57:52;;;;;;;7.20;2.22;;;;;;;;;;5030662;28;20087;-58
2022/10/19 14:00:17;;;;;;;8.43;2.25;;;;;;;;;;5030939;28;20029;-58
2022/10/19 14:03:01;;;;;;;12.82;3.75;;;;;;;;;;5030517;28;20037;-58
2022/10/19 14:05:27;;;;;;;5.75;4.00;;;;;;;;;;5031855;28;20126;-58
2022/10/19 14:08:04;;;;;;;6.72;3.55;;;;;;;;;;5030566;28;20501;-59
2022/10/19 14:10:30;;;;;;;11.77;5.13;;;;;;;;;;5031861;28;20013;-58
2022/10/19 14:12:55;;;;;;;6.70;3.97;;;;;;;;;;5030426;28;20048;-58
2022/10/19 14:15:22;;;;;;;4.55;3.00;;;;;;;;;;5031758;28;20060;-58
2022/10/19 14:17:47;;;;;;;10.45;5.25;;;;;;;;;;5030900;28;20048;-58
2022/10/19 14:20:35;;;;;;;5.55;3.90;;;;;;;;;;5031602;28;20092;-58
2022/10/19 14:23:00;;;;;;;;;;;;;;;;;;5024923;28;20049;-58
2022/10/19 14:25:26;;;;;;;6.72;3.20;;;;;;;;;;5031903;28;19912;-58
2022/10/19 14:27:59;;;;;;;8.60;4.35;;;;;;;;;;5030589;28;20393;-58
2022/10/19 14:30:27;;;;;;;10.25;3.90;;;;;;;;;;5030693;28;20017;-58
2022/10/19 14:32:52;;;;;;;11.70;5.25;;;;;;;;;;5030513;28;20042;-58
2022/10/19 14:35:23;;;;;;;5.03;3.22;;;;;;;;;;5031749;28;20115;-58
2022/10/19 14:37:48;;;;;;;5.75;3.97;;;;;;;;;;5026462;28;20041;-57